Time;durP1;ratioP1;P1;durP2;ratioP2;P2;SDS_P1;SDS_P2;PMS_P1;PMS_P2;Temp;Humidity;BMP_temperature;BMP_pressure;BME280_temperature;BME280_humidity;BME280_pressure;Samples;Min_cycle;Max_cycle;Signal;HPM_P1;HPM_P2
2022/05/10 00:00:36;;;;;;;6.70;2.30;;;;;;;9.41;33.88;101056.38;4184053;28;20296;-65
2022/05/10 00:03:05;;;;;;;4.67;2.07;;;;;;;9.36;34.67;101050.56;4196313;28;20743;-66
2022/05/10 00:05:38;;;;;;;4.27;1.63;;;;;;;9.33;33.94;101056.16;4183405;28;20232;-68
2022/05/10 00:08:07;;;;;;;7.83;2.00;;;;;;;9.38;34.02;101053.97;4196237;28;20533;-67
2022/05/10 00:10:34;;;;;;;5.40;1.93;;;;;;;9.26;34.75;101050.47;4217158;28;20240;-67
2022/05/10 00:13:01;;;;;;;5.43;1.90;;;;;;;9.29;34.61;101052.88;4200775;28;21014;-66
2022/05/10 00:15:28;;;;;;;5.97;1.80;;;;;;;9.35;34.56;101047.09;4186613;28;22643;-67
2022/05/10 00:17:54;;;;;;;4.37;1.80;;;;;;;9.38;34.69;101048.66;4190781;28;23102;-66
2022/05/10 00:20:24;;;;;;;6.27;1.70;;;;;;;9.43;34.63;101041.16;4186885;28;20403;-65
2022/05/10 00:22:50;;;;;;;5.10;1.77;;;;;;;9.49;34.53;101040.66;4191644;28;22282;-67
2022/05/10 00:25:22;;;;;;;5.40;2.40;;;;;;;9.54;34.63;101041.13;4195883;28;20552;-67
2022/05/10 00:27:49;;;;;;;5.33;2.10;;;;;;;9.53;34.99;101034.16;4196006;28;20296;-66
2022/05/10 00:30:16;;;;;;;9.13;1.90;;;;;;;9.42;35.66;101036.81;4201312;28;20236;-67
2022/05/10 00:32:43;;;;;;;5.00;2.07;;;;;;;9.45;35.64;101033.91;4198102;28;20240;-65
2022/05/10 00:35:16;;;;;;;4.73;2.30;;;;;;;9.45;35.77;101032.09;4208414;28;20330;-67
2022/05/10 00:37:45;;;;;;;6.73;2.50;;;;;;;9.44;35.76;101030.41;4205430;28;20227;-67
2022/05/10 00:40:13;;;;;;;5.90;2.57;;;;;;;9.41;35.72;101024.47;4213968;28;20247;-68
2022/05/10 00:42:55;;;;;;;6.27;2.10;;;;;;;9.51;35.93;101025.47;4203944;28;20239;-67
2022/05/10 00:45:44;;;;;;;7.53;2.30;;;;;;;9.41;35.88;101019.19;4193672;28;20235;-68
2022/05/10 00:48:25;;;;;;;3.73;2.30;;;;;;;9.28;37.24;101024.63;4179155;28;22370;-67
2022/05/10 00:51:02;;;;;;;6.00;2.50;;;;;;;9.27;36.46;101026.47;4196186;28;20681;-66
2022/05/10 00:53:56;;;;;;;4.83;2.10;;;;;;;9.28;36.65;101025.47;4204690;28;20238;-68
2022/05/10 00:56:46;;;;;;;4.07;2.17;;;;;;;9.26;36.88;101019.44;4196751;28;22072;-67
2022/05/10 00:59:26;;;;;;;7.23;2.77;;;;;;;9.21;37.47;101016.31;4212930;28;20259;-68
2022/05/10 01:02:00;;;;;;;8.10;2.83;;;;;;;9.13;37.36;101016.09;4219196;28;20259;-66
2022/05/10 01:04:35;;;;;;;6.47;2.80;;;;;;;9.18;37.17;101016.56;4207169;28;22318;-66
2022/05/10 01:07:07;;;;;;;9.60;2.77;;;;;;;8.99;37.81;101013.66;4216428;28;21430;-67
2022/05/10 01:09:56;;;;;;;5.73;2.57;;;;;;;9.02;37.45;101002.81;4209788;28;20232;-67
2022/05/10 01:12:36;;;;;;;10.27;2.80;;;;;;;8.86;38.15;100993.38;4214362;28;21195;-69
2022/05/10 01:15:20;;;;;;;6.33;2.47;;;;;;;8.86;37.89;101004.00;4199387;28;20241;-66
2022/05/10 01:17:47;;;;;;;4.83;2.30;;;;;;;8.80;38.67;101001.84;4200722;28;23243;-68
2022/05/10 01:20:20;;;;;;;5.10;2.40;;;;;;;8.80;38.33;100996.53;4188936;28;20644;-67
2022/05/10 01:22:57;;;;;;;5.67;2.70;;;;;;;8.84;38.63;101000.63;4200280;28;20231;-67
2022/05/10 01:25:49;;;;;;;8.00;2.83;;;;;;;8.84;38.75;100999.78;4194635;28;21088;-67
2022/05/10 01:28:18;;;;;;;8.70;2.50;;;;;;;8.79;39.13;100997.47;4199905;28;24904;-66
2022/05/10 01:30:45;;;;;;;6.93;2.53;;;;;;;8.61;39.70;100988.28;4209495;28;21019;-65
2022/05/10 01:33:30;;;;;;;9.30;3.10;;;;;;;8.54;40.27;100984.44;4213067;28;20229;-66
2022/05/10 01:36:15;;;;;;;7.27;2.50;;;;;;;8.50;39.78;100985.63;4212690;28;20382;-67
2022/05/10 01:38:55;;;;;;;5.23;2.40;;;;;;;8.50;39.42;100990.91;4192556;28;20376;-67
2022/05/10 01:41:36;;;;;;;9.13;2.40;;;;;;;8.45;40.48;100978.88;4220503;28;20308;-68
2022/05/10 01:44:20;;;;;;;10.90;3.00;;;;;;;8.24;41.32;100972.50;4198023;28;20236;-66
2022/05/10 01:46:49;;;;;;;8.10;2.60;;;;;;;8.11;42.45;100974.41;4201377;28;21791;-66
2022/05/10 01:49:22;;;;;;;7.70;2.60;;;;;;;8.02;41.74;100971.50;4200445;28;20307;-67
2022/05/10 01:52:13;;;;;;;9.23;2.63;;;;;;;8.01;42.44;100972.47;4182577;28;20245;-66
2022/05/10 01:54:39;;;;;;;5.63;2.20;;;;;;;8.00;41.51;100976.06;4217419;28;20467;-66
2022/05/10 01:57:14;;;;;;;10.83;2.70;;;;;;;8.09;41.51;100979.00;4219142;28;20236;-68
2022/05/10 01:59:45;;;;;;;6.40;2.67;;;;;;;7.99;41.90;100977.03;4205907;28;20240;-66
2022/05/10 02:02:13;;;;;;;8.57;2.60;;;;;;;7.92;42.41;100967.00;4181588;28;20240;-67
2022/05/10 02:04:40;;;;;;;9.90;2.40;;;;;;;7.93;41.28;100966.88;4196040;28;21007;-68
2022/05/10 02:07:16;;;;;;;7.13;2.60;;;;;;;7.89;43.63;100965.44;4208261;28;21479;-66
2022/05/10 02:09:46;;;;;;;8.20;2.63;;;;;;;7.76;44.94;100954.06;4192251;28;20334;-67
2022/05/10 02:12:38;;;;;;;10.83;3.00;;;;;;;7.58;43.73;100962.38;4214493;28;20595;-67
2022/05/10 02:15:33;;;;;;;5.47;2.57;;;;;;;7.65;43.39;100956.66;4213670;28;20262;-69
2022/05/10 02:18:16;;;;;;;10.97;3.27;;;;;;;7.65;43.62;100961.94;4204606;28;21795;-67
2022/05/10 02:20:58;;;;;;;9.20;2.87;;;;;;;7.58;43.92;100967.69;4208233;28;20241;-68
2022/05/10 02:23:33;;;;;;;11.20;3.17;;;;;;;7.49;44.37;100957.78;4207249;28;21820;-65
2022/05/10 02:26:16;;;;;;;8.70;3.20;;;;;;;7.43;45.80;100960.88;4190047;28;20279;-66
2022/05/10 02:28:51;;;;;;;7.53;3.00;;;;;;;7.47;46.24;100959.69;4203290;28;24050;-66
2022/05/10 02:31:25;;;;;;;6.10;2.80;;;;;;;7.26;47.44;100955.94;4197266;28;20227;-67
2022/05/10 02:33:53;;;;;;;8.37;2.87;;;;;;;7.12;47.27;100949.88;4204917;28;20265;-66
2022/05/10 02:36:19;;;;;;;10.20;2.80;;;;;;;7.04;48.64;100948.72;4198147;28;20380;-66
2022/05/10 02:38:46;;;;;;;10.13;2.87;;;;;;;7.00;47.82;100940.16;4204873;28;20232;-68
2022/05/10 02:41:17;;;;;;;9.23;2.70;;;;;;;7.02;47.68;100951.44;4195012;28;20229;-66
2022/05/10 02:43:54;;;;;;;6.20;2.70;;;;;;;6.99;46.44;100949.03;4197210;28;20228;-67
2022/05/10 02:46:21;;;;;;;9.30;3.20;;;;;;;6.91;47.52;100948.75;4200444;28;20236;-67
2022/05/10 02:48:48;;;;;;;8.40;3.13;;;;;;;6.89;47.11;100955.94;4207376;28;20779;-69
2022/05/10 02:51:16;;;;;;;9.20;3.30;;;;;;;6.97;46.73;100943.00;4201614;28;21589;-67
2022/05/10 02:53:43;;;;;;;12.47;3.60;;;;;;;6.94;45.79;100943.22;4210224;28;20395;-67
2022/05/10 02:56:14;;;;;;;17.77;3.70;;;;;;;6.97;46.32;100953.59;4214236;28;20231;-67
2022/05/10 02:58:45;;;;;;;9.50;3.03;;;;;;;7.03;46.27;100949.69;4224292;28;21066;-66
2022/05/10 03:01:15;;;;;;;10.97;3.50;;;;;;;7.14;46.18;100942.66;4259850;28;20689;-68
2022/05/10 03:03:42;;;;;;;9.93;3.30;;;;;;;7.17;46.47;100947.72;4309097;28;20257;-67
2022/05/10 03:06:08;;;;;;;8.50;2.83;;;;;;;7.03;46.93;100939.94;4397859;23;20265;-64
2022/05/10 03:08:35;;;;;;;8.23;3.03;;;;;;;7.03;46.10;100942.56;4956078;28;20639;-64
2022/05/10 03:11:01;;;;;;;12.10;3.43;;;;;;;7.06;46.74;100942.34;4985890;28;20265;-64
2022/05/10 03:13:28;;;;;;;5.40;2.90;;;;;;;6.97;48.94;100933.25;4971030;28;20364;-63
2022/05/10 03:15:55;;;;;;;8.27;3.13;;;;;;;7.02;46.01;100938.22;4969125;28;20237;-63
2022/05/10 03:18:22;;;;;;;9.63;2.90;;;;;;;6.93;48.31;100938.88;4968263;28;20231;-64
2022/05/10 03:20:50;;;;;;;12.27;3.57;;;;;;;6.95;46.94;100936.97;4986666;28;20291;-63
2022/05/10 03:23:17;;;;;;;8.83;3.50;;;;;;;7.00;47.63;100934.88;4988499;28;20817;-64
2022/05/10 03:25:43;;;;;;;9.13;3.33;;;;;;;7.03;46.52;100942.56;4970727;28;20643;-63
2022/05/10 03:28:10;;;;;;;11.07;3.70;;;;;;;7.10;47.16;100938.53;4983195;28;20239;-64
2022/05/10 03:30:37;;;;;;;13.27;3.50;;;;;;;7.14;46.17;100937.38;4983623;28;20710;-64
2022/05/10 03:33:04;;;;;;;10.87;3.00;;;;;;;7.12;46.60;100933.16;4978504;28;20229;-65
2022/05/10 03:35:31;;;;;;;10.67;3.10;;;;;;;7.11;45.66;100931.44;4971931;28;20231;-64
2022/05/10 03:37:57;;;;;;;8.83;3.03;;;;;;;7.22;47.59;100925.38;4971099;28;20228;-64
2022/05/10 03:40:24;;;;;;;10.73;2.80;;;;;;;7.23;47.70;100919.94;4975466;28;20298;-64
2022/05/10 03:42:52;;;;;;;9.63;3.20;;;;;;;7.28;47.18;100922.25;4971118;28;20228;-64
2022/05/10 03:45:20;;;;;;;14.17;3.70;;;;;;;7.28;45.74;100923.13;4974102;28;20223;-63
2022/05/10 03:47:48;;;;;;;14.13;3.80;;;;;;;7.45;46.21;100919.25;4976884;28;20231;-64
2022/05/10 03:50:15;;;;;;;12.40;2.97;;;;;;;7.47;45.59;100917.34;4973103;28;20230;-64
2022/05/10 03:52:43;;;;;;;8.03;3.33;;;;;;;7.57;44.96;100907.75;4975297;28;20338;-63
2022/05/10 03:55:13;;;;;;;11.43;3.27;;;;;;;7.49;46.56;100910.13;4972871;28;20284;-64
2022/05/10 03:57:41;;;;;;;11.33;3.93;;;;;;;7.57;46.66;100907.75;4969734;28;20224;-63
2022/05/10 04:00:11;;;;;;;7.20;3.23;;;;;;;7.70;45.68;100912.13;4972068;28;20266;-63
2022/05/10 04:02:37;;;;;;;10.73;3.73;;;;;;;7.69;43.65;100916.56;4973689;28;20299;-64
2022/05/10 04:05:05;;;;;;;17.63;3.63;;;;;;;7.90;43.66;100919.41;4971437;28;20223;-64
2022/05/10 04:07:33;;;;;;;10.30;3.40;;;;;;;8.06;43.42;100923.56;4969892;28;20238;-64
2022/05/10 04:09:59;;;;;;;9.70;2.80;;;;;;;8.15;41.99;100918.41;4958540;28;20310;-64
2022/05/10 04:12:26;;;;;;;13.47;3.10;;;;;;;8.26;42.30;100914.91;4969238;28;20291;-64
2022/05/10 04:14:53;;;;;;;13.10;3.63;;;;;;;8.27;43.69;100911.31;4968929;28;20222;-65
2022/05/10 04:17:19;;;;;;;11.67;3.40;;;;;;;8.35;42.14;100916.00;4956905;28;20331;-64
2022/05/10 04:19:46;;;;;;;10.03;3.20;;;;;;;8.51;40.98;100926.31;4969285;28;20327;-63
2022/05/10 04:22:13;;;;;;;7.80;3.53;;;;;;;8.57;41.76;100923.16;4967038;28;20706;-64
2022/05/10 04:24:58;;;;;;;8.67;3.17;;;;;;;8.72;39.97;100924.63;4957166;28;20228;-64
2022/05/10 04:27:25;;;;;;;13.07;3.40;;;;;;;8.69;39.37;100930.19;4956478;28;20323;-65
2022/05/10 04:29:51;;;;;;;7.60;2.93;;;;;;;8.70;38.25;100931.03;4970229;28;20852;-64
2022/05/10 04:32:18;;;;;;;9.43;2.80;;;;;;;8.80;38.63;100932.84;4969448;28;20289;-64
2022/05/10 04:34:45;;;;;;;8.23;2.73;;;;;;;8.82;37.94;100933.53;4971169;28;20239;-64
2022/05/10 04:37:11;;;;;;;13.80;3.20;;;;;;;8.88;38.43;100927.75;4968905;28;20227;-64
2022/05/10 04:42:23;;;;;;;10.93;2.93;;;;;;;9.11;38.10;100924.22;4967428;28;20230;-66
2022/05/10 04:44:50;;;;;;;13.77;3.30;;;;;;;9.20;38.28;100934.97;4967879;28;20220;-64
2022/05/10 04:47:23;;;;;;;15.57;3.30;;;;;;;9.26;37.93;100937.09;4968836;28;20286;-65
2022/05/10 04:49:50;;;;;;;13.20;3.20;;;;;;;9.42;37.47;100943.84;4951913;28;20759;-64
2022/05/10 04:52:16;;;;;;;13.47;3.53;;;;;;;9.46;37.35;100938.16;4969797;28;20220;-65
2022/05/10 04:54:43;;;;;;;16.27;3.13;;;;;;;9.52;36.91;100942.13;4967901;28;20303;-64
2022/05/10 04:57:10;;;;;;;17.20;3.30;;;;;;;9.61;37.10;100933.38;4966729;28;20346;-65
2022/05/10 04:59:36;;;;;;;19.33;3.77;;;;;;;9.73;36.96;100928.88;4969251;28;20313;-65
2022/05/10 05:02:03;;;;;;;16.80;3.57;;;;;;;9.87;37.44;100938.34;4968256;28;20303;-64
2022/05/10 05:04:35;;;;;;;14.40;3.73;;;;;;;9.90;36.90;100935.44;4966616;28;20224;-64
2022/05/10 05:07:02;;;;;;;17.43;3.70;;;;;;;9.95;36.36;100938.56;4952105;28;20278;-67
2022/05/10 05:09:29;;;;;;;17.73;3.73;;;;;;;10.00;36.44;100936.38;4947832;28;20229;-66
2022/05/10 05:11:57;;;;;;;13.17;3.70;;;;;;;10.09;36.54;100938.25;4967538;28;20224;-66
2022/05/10 05:14:24;;;;;;;18.10;3.63;;;;;;;10.19;35.95;100940.97;4968304;28;20759;-65
2022/05/10 05:16:54;;;;;;;11.57;2.97;;;;;;;10.27;35.70;100942.97;4951334;28;20388;-65
2022/05/10 05:19:21;;;;;;;9.87;3.33;;;;;;;10.34;35.86;100949.50;4965898;28;20659;-66
2022/05/10 05:21:48;;;;;;;19.30;3.30;;;;;;;10.41;35.89;100948.00;4968656;28;20256;-66
2022/05/10 05:24:14;;;;;;;10.73;3.93;;;;;;;10.53;36.12;100952.25;4967947;28;20718;-66
2022/05/10 05:26:41;;;;;;;16.20;3.43;;;;;;;10.68;36.19;100955.44;4966545;28;20339;-66
2022/05/10 05:29:08;;;;;;;15.63;3.83;;;;;;;10.71;35.27;100954.31;4967978;28;20742;-65
2022/05/10 05:31:34;;;;;;;11.57;3.20;;;;;;;10.93;34.41;100959.47;4967766;28;20225;-66
2022/05/10 05:34:01;;;;;;;12.40;3.50;;;;;;;11.17;35.45;100958.28;4963272;28;21061;-69
2022/05/10 05:36:27;;;;;;;16.83;3.97;;;;;;;11.35;35.13;100961.94;4969764;28;20849;-69
2022/05/10 05:38:54;;;;;;;11.20;3.03;;;;;;;11.39;33.70;100971.34;4966715;28;20232;-68
2022/05/10 05:41:21;;;;;;;14.13;2.50;;;;;;;11.46;33.94;100973.50;4949922;28;20230;-65
2022/05/10 05:43:48;;;;;;;14.87;3.13;;;;;;;11.71;33.40;100972.13;4965828;28;20243;-66
2022/05/10 05:46:14;;;;;;;9.20;2.63;;;;;;;12.13;31.36;100972.72;4949536;28;20675;-68
2022/05/10 05:48:41;;;;;;;10.00;2.60;;;;;;;13.36;29.98;100969.06;4965524;28;20958;-68
2022/05/10 05:51:08;;;;;;;13.20;4.00;;;;;;;14.81;28.52;100978.69;4967193;28;20802;-67
2022/05/10 05:53:34;;;;;;;17.17;3.40;;;;;;;16.13;26.60;100980.72;4962456;28;20310;-66
2022/05/10 05:56:03;;;;;;;14.30;2.70;;;;;;;17.22;23.98;100988.25;4966738;28;20707;-66
2022/05/10 05:58:30;;;;;;;8.17;2.23;;;;;;;17.96;22.36;100990.53;4966796;28;20275;-68
2022/05/10 06:00:57;;;;;;;11.63;2.77;;;;;;;17.89;21.45;100995.81;4963744;28;20329;-66
2022/05/10 06:03:23;;;;;;;11.50;2.43;;;;;;;17.91;21.66;101004.56;4968405;28;20290;-66
2022/05/10 06:05:50;;;;;;;14.43;2.87;;;;;;;18.14;21.84;100999.16;4945210;28;20235;-66
2022/05/10 06:08:18;;;;;;;7.63;2.50;;;;;;;18.28;21.55;100993.97;4953678;28;20383;-67
2022/05/10 06:10:50;;;;;;;13.50;2.50;;;;;;;18.04;21.66;100998.56;4949806;28;20243;-67
2022/05/10 06:13:22;;;;;;;11.40;2.80;;;;;;;18.83;20.55;101000.06;4965740;28;20216;-72
2022/05/10 06:15:49;;;;;;;12.60;2.87;;;;;;;19.00;20.79;100998.00;4966140;28;20318;-67
2022/05/10 06:18:16;;;;;;;18.63;2.97;;;;;;;20.14;20.22;101001.84;4932516;28;20230;-69
2022/05/10 06:20:42;;;;;;;17.80;3.03;;;;;;;21.12;18.88;101010.06;4962672;28;20240;-69
2022/05/10 06:23:11;;;;;;;9.57;2.47;;;;;;;22.15;17.26;101012.69;4967333;28;20310;-69
2022/05/10 06:25:37;;;;;;;7.40;2.10;;;;;;;21.88;16.98;100998.25;4964033;28;20822;-68
2022/05/10 06:28:04;;;;;;;9.73;2.10;;;;;;;21.75;16.98;101003.63;4966795;28;20302;-68
2022/05/10 06:30:31;;;;;;;12.40;2.10;;;;;;;21.47;17.40;100997.31;4966067;28;20227;-67
2022/05/10 06:32:59;;;;;;;12.97;2.93;;;;;;;21.01;17.78;100992.50;4950896;28;20757;-70
2022/05/10 06:35:26;;;;;;;6.97;2.30;;;;;;;20.42;18.44;100982.94;4964991;28;20307;-67
2022/05/10 06:38:27;;;;;;;15.40;2.87;;;;;;;21.44;17.75;100991.47;4965736;28;20224;-67
2022/05/10 06:40:56;;;;;;;9.87;3.10;;;;;;;21.38;17.78;100993.09;4952340;28;21264;-67
2022/05/10 06:43:29;;;;;;;13.10;3.20;;;;;;;20.91;17.74;100994.75;4964019;28;20759;-65
2022/05/10 06:45:59;;;;;;;8.90;2.97;;;;;;;20.33;18.54;100994.94;4951599;28;20235;-66
2022/05/10 06:48:26;;;;;;;10.53;3.20;;;;;;;20.02;18.99;100989.88;4951768;28;20639;-70
2022/05/10 06:50:52;;;;;;;8.33;2.87;;;;;;;21.32;17.94;100985.78;4968859;28;20333;-67
2022/05/10 06:53:19;;;;;;;16.50;3.43;;;;;;;22.53;16.84;100996.66;4970203;28;20250;-68
2022/05/10 06:55:46;;;;;;;14.13;3.17;;;;;;;22.71;16.22;100990.59;4971122;28;20220;-68
2022/05/10 06:58:13;;;;;;;11.30;3.37;;;;;;;24.10;15.11;100998.34;4951470;28;20224;-68
2022/05/10 07:00:40;;;;;;;10.07;3.37;;;;;;;23.75;15.29;101001.53;4952114;28;20353;-68
2022/05/10 07:03:11;;;;;;;12.67;3.70;;;;;;;24.14;14.51;101000.41;4967012;28;20224;-68
2022/05/10 07:05:39;;;;;;;16.70;3.87;;;;;;;24.95;13.67;100998.63;4964850;28;20227;-70
2022/05/10 07:08:06;;;;;;;13.47;3.40;;;;;;;24.55;14.59;100990.88;4949807;28;20290;-67
2022/05/10 07:10:33;;;;;;;12.90;4.30;;;;;;;25.49;13.74;101001.56;4952271;28;20318;-68
2022/05/10 07:13:00;;;;;;;19.27;3.83;;;;;;;26.41;12.55;101000.41;4967145;28;20223;-67
2022/05/10 07:15:27;;;;;;;12.67;3.70;;;;;;;25.70;12.66;101003.78;4955045;28;20302;-68
2022/05/10 07:17:56;;;;;;;10.30;3.60;;;;;;;26.13;12.42;101009.28;4953904;28;20247;-68
2022/05/10 07:20:23;;;;;;;18.47;3.43;;;;;;;24.99;13.25;100999.84;4968700;28;20302;-69
2022/05/10 07:22:50;;;;;;;8.90;3.30;;;;;;;25.66;12.53;101002.59;4968347;28;20287;-70
2022/05/10 07:25:19;;;;;;;25.37;3.60;;;;;;;25.32;13.25;100987.75;4965541;28;20250;-66
2022/05/10 07:27:46;;;;;;;12.50;3.47;;;;;;;26.37;12.81;100989.16;4953481;28;20260;-71
2022/05/10 07:30:14;;;;;;;7.57;3.10;;;;;;;25.55;12.68;100988.94;4950525;28;20219;-71
2022/05/10 07:32:41;;;;;;;10.87;3.10;;;;;;;24.56;13.40;100978.09;4951958;28;20979;-69
2022/05/10 07:35:08;;;;;;;12.20;2.97;;;;;;;23.72;14.11;100982.91;4945905;28;20252;-70
2022/05/10 07:37:38;;;;;;;5.17;2.50;;;;;;;22.57;15.04;100967.25;4968946;28;20818;-69
2022/05/10 07:40:05;;;;;;;10.37;2.80;;;;;;;20.93;16.51;100952.09;4967051;28;20235;-70
2022/05/10 07:42:34;;;;;;;10.37;2.50;;;;;;;20.46;17.48;100953.63;4951296;28;20231;-69
2022/05/10 07:45:01;;;;;;;8.10;3.60;;;;;;;20.44;18.42;100942.22;4958022;28;20234;-70
2022/05/10 07:47:28;;;;;;;12.73;4.07;;;;;;;20.56;17.98;100951.47;4950244;28;20243;-67
2022/05/10 07:49:58;;;;;;;8.10;3.00;;;;;;;20.72;18.26;100946.75;4967859;28;23130;-66
2022/05/10 07:52:25;;;;;;;12.20;3.10;;;;;;;21.10;17.40;100951.75;4967505;28;20251;-77
2022/05/10 07:54:52;;;;;;;8.63;2.13;;;;;;;20.77;18.13;100942.44;4939266;28;20571;-67
2022/05/10 07:57:18;;;;;;;21.10;3.20;;;;;;;20.69;18.04;100952.56;4967351;28;20228;-69
2022/05/10 07:59:45;;;;;;;8.90;2.23;;;;;;;20.49;16.94;100942.44;4954641;28;20315;-63
2022/05/10 08:02:13;;;;;;;9.37;2.13;;;;;;;20.46;17.60;100945.53;4950402;28;20232;-69
2022/05/10 08:04:40;;;;;;;7.13;2.17;;;;;;;20.69;17.35;100949.88;4967250;28;20307;-69
2022/05/10 08:07:07;;;;;;;12.77;2.57;;;;;;;20.96;17.40;100956.28;4967327;28;20268;-68
2022/05/10 08:09:33;;;;;;;7.30;2.20;;;;;;;21.26;16.70;100952.25;4950746;28;20724;-69
2022/05/10 08:12:00;;;;;;;7.20;2.10;;;;;;;20.97;17.49;100956.06;4952400;28;20363;-68
2022/05/10 08:14:27;;;;;;;5.33;1.70;;;;;;;21.29;15.64;100964.53;4967458;28;20330;-70
2022/05/10 08:16:53;;;;;;;5.53;1.70;;;;;;;20.71;16.46;100964.03;4954472;28;20303;-69
2022/05/10 08:19:20;;;;;;;3.23;1.77;;;;;;;20.13;16.56;100946.09;4949607;28;20751;-74
2022/05/10 08:21:47;;;;;;;7.93;2.03;;;;;;;20.16;17.29;100945.75;4951606;28;20251;-70
2022/05/10 08:24:14;;;;;;;7.03;1.90;;;;;;;20.47;17.21;100940.97;4964118;28;20325;-71
2022/05/10 08:26:41;;;;;;;7.43;2.10;;;;;;;20.45;16.98;100938.47;4967634;28;20766;-70
2022/05/10 08:29:08;;;;;;;8.83;1.80;;;;;;;20.50;17.06;100937.88;4966914;28;20291;-72
2022/05/10 08:31:34;;;;;;;8.13;1.60;;;;;;;20.34;16.50;100930.88;4965398;28;20247;-69
2022/05/10 08:34:02;;;;;;;5.20;1.97;;;;;;;20.33;16.54;100931.94;4967554;28;20223;-70
2022/05/10 08:36:28;;;;;;;4.97;1.80;;;;;;;20.15;16.92;100924.31;4967651;28;20776;-69
2022/05/10 08:38:57;;;;;;;7.90;2.07;;;;;;;19.91;18.19;100909.38;4968771;28;20250;-69
2022/05/10 08:41:39;;;;;;;4.23;1.50;;;;;;;20.12;17.06;100913.91;4955248;28;20287;-70
2022/05/10 08:44:12;;;;;;;7.80;1.90;;;;;;;20.32;17.16;100924.84;4965071;28;20698;-69
2022/05/10 08:46:41;;;;;;;7.20;1.77;;;;;;;19.58;16.91;100928.75;4967257;28;20227;-71
2022/05/10 08:49:32;;;;;;;3.83;1.70;;;;;;;19.60;16.88;100926.69;4953698;28;20868;-70
2022/05/10 08:51:59;;;;;;;7.23;1.60;;;;;;;19.53;18.31;100915.00;4947329;28;20310;-69
2022/05/10 08:54:27;;;;;;;5.57;1.70;;;;;;;19.84;18.34;100913.88;4964066;28;20279;-70
2022/05/10 08:57:00;;;;;;;7.43;2.10;;;;;;;19.72;18.08;100922.50;4969430;28;20267;-70
2022/05/10 08:59:32;;;;;;;9.07;1.70;;;;;;;19.26;18.24;100905.78;4966525;28;20267;-70
2022/05/10 09:02:06;;;;;;;5.10;1.73;;;;;;;19.47;18.08;100913.88;4940628;28;20271;-69
2022/05/10 09:04:56;;;;;;;5.50;1.73;;;;;;;19.33;18.21;100904.81;4941284;28;20254;-70
2022/05/10 09:07:40;;;;;;;9.57;2.10;;;;;;;19.32;17.17;100905.84;4932314;28;20228;-71
2022/05/10 09:10:45;;;;;;;5.70;1.97;;;;;;;18.92;18.01;100900.00;4947749;28;20226;-68
2022/05/10 09:13:15;;;;;;;6.33;1.97;;;;;;;18.90;18.18;100896.66;4967407;28;20232;-69
2022/05/10 09:15:55;;;;;;;6.33;1.93;;;;;;;19.00;18.15;100890.13;4966277;28;20369;-69
2022/05/10 09:18:29;;;;;;;8.10;1.83;;;;;;;18.77;17.91;100891.91;4967757;28;20237;-70
2022/05/10 09:21:02;;;;;;;3.43;1.70;;;;;;;18.88;18.20;100882.50;4964763;28;20297;-69
2022/05/10 09:23:40;;;;;;;13.03;2.47;;;;;;;19.02;19.12;100888.91;4966392;28;20235;-70
2022/05/10 09:26:06;;;;;;;7.27;2.53;;;;;;;18.88;19.22;100884.38;4948193;28;20309;-69
2022/05/10 09:28:38;;;;;;;11.33;2.00;;;;;;;19.00;19.39;100874.75;4948558;28;20654;-70
2022/05/10 09:34:47;;;;;;;7.20;2.07;;;;;;;18.72;18.99;100861.13;4967067;28;20220;-70
2022/05/10 09:37:20;;;;;;;4.80;2.10;;;;;;;18.82;18.88;100856.28;4966204;28;20269;-67
2022/05/10 09:40:24;;;;;;;4.57;1.63;;;;;;;18.47;17.66;100858.72;4959013;28;20311;-67
2022/05/10 09:42:53;;;;;;;6.83;1.80;;;;;;;18.77;17.64;100861.41;4963910;28;20232;-67
2022/05/10 09:45:28;;;;;;;3.90;1.90;;;;;;;18.83;17.58;100863.38;4948730;28;20255;-66
2022/05/10 09:48:00;;;;;;;4.60;1.53;;;;;;;18.84;17.44;100854.25;4967080;28;20245;-68
2022/05/10 09:50:33;;;;;;;4.80;1.87;;;;;;;18.72;17.53;100850.34;4966579;28;20315;-67
2022/05/10 09:53:18;;;;;;;6.57;2.47;;;;;;;18.81;17.34;100846.53;4952980;28;20220;-66
2022/05/10 09:56:09;;;;;;;10.70;2.10;;;;;;;18.84;18.39;100846.16;4965518;28;22255;-67
2022/05/10 09:58:42;;;;;;;7.60;2.03;;;;;;;19.01;17.52;100843.22;4965151;28;20661;-67
2022/05/10 10:01:13;;;;;;;7.70;2.10;;;;;;;19.12;18.38;100840.03;4946685;28;20675;-70
2022/05/10 10:03:42;;;;;;;9.13;2.07;;;;;;;19.44;17.36;100837.88;4964055;28;20236;-68
2022/05/10 10:06:25;;;;;;;5.63;2.00;;;;;;;19.12;16.65;100842.75;4966423;28;20223;-68
2022/05/10 10:08:53;;;;;;;6.43;1.70;;;;;;;18.84;17.07;100832.66;4964733;28;20248;-67
2022/05/10 10:11:34;;;;;;;5.60;1.87;;;;;;;18.67;17.82;100832.03;4965277;28;20255;-67
2022/05/10 10:14:10;;;;;;;5.57;1.80;;;;;;;18.70;18.48;100828.13;4947313;28;22887;-67
2022/05/10 10:16:48;;;;;;;4.93;1.80;;;;;;;18.71;18.13;100819.03;4950365;28;20584;-72
2022/05/10 10:19:36;;;;;;;8.37;1.70;;;;;;;18.67;18.55;100810.47;4934593;28;20287;-67
2022/05/10 10:22:10;;;;;;;5.33;1.97;;;;;;;18.80;18.05;100812.53;4964221;28;20328;-66
2022/05/10 10:24:53;;;;;;;2.80;1.73;;;;;;;18.70;17.12;100820.03;4944289;28;20716;-68
2022/05/10 10:27:36;;;;;;;3.07;1.70;;;;;;;18.75;17.38;100815.75;4942999;28;20231;-68
2022/05/10 10:30:25;;;;;;;9.87;1.67;;;;;;;18.90;17.50;100804.94;4947986;28;20568;-68
2022/05/10 10:32:59;;;;;;;5.03;2.00;;;;;;;18.87;17.68;100791.00;4936663;28;20748;-66
2022/05/10 10:35:41;;;;;;;3.73;2.00;;;;;;;18.39;18.71;100794.16;4946795;28;20222;-66
2022/05/10 10:38:32;;;;;;;5.33;1.93;;;;;;;18.57;18.96;100785.66;4948585;28;20317;-67
2022/05/10 10:41:04;;;;;;;7.77;2.23;;;;;;;19.01;17.54;100781.19;4963552;28;20270;-67
2022/05/10 10:43:42;;;;;;;5.80;1.87;;;;;;;19.13;16.83;100772.41;4965004;28;20242;-67
2022/05/10 10:46:29;;;;;;;6.73;1.93;;;;;;;18.76;17.24;100768.91;4949697;28;20670;-68
2022/05/10 10:49:07;;;;;;;6.70;1.75;;;;;;;18.85;17.79;100764.25;4945760;28;20484;-74
2022/05/10 10:51:34;;;;;;;9.93;2.07;;;;;;;19.13;18.09;100760.78;4947603;28;20329;-75
2022/05/10 10:54:01;;;;;;;5.60;2.30;;;;;;;19.16;16.27;100763.09;4963544;28;20325;-58
2022/05/10 10:56:28;;;;;;;3.67;1.73;;;;;;;19.02;16.58;100753.22;4952141;28;20227;-67
2022/05/10 10:59:08;;;;;;;4.50;1.97;;;;;;;18.84;16.98;100757.16;4966077;28;20313;-64
2022/05/10 11:01:46;;;;;;;3.63;2.00;;;;;;;18.91;16.88;100754.53;4950327;28;20889;-64
2022/05/10 11:04:33;;;;;;;11.17;2.10;;;;;;;19.09;16.29;100754.09;4962648;28;20685;-63
2022/05/10 11:07:03;;;;;;;5.83;2.27;;;;;;;19.19;15.81;100743.81;4963791;28;20249;-66
2022/05/10 11:09:33;;;;;;;7.50;2.23;;;;;;;19.12;15.98;100748.31;4955948;28;20267;-66
2022/05/10 11:12:24;;;;;;;5.27;1.97;;;;;;;19.19;16.62;100747.34;4946657;28;20325;-65
2022/05/10 11:15:16;;;;;;;3.73;1.83;;;;;;;19.18;17.25;100736.75;4953928;28;21156;-65
2022/05/10 11:18:15;;;;;;;4.00;2.00;;;;;;;19.26;16.96;100727.69;4946490;28;20219;-65
2022/05/10 11:21:05;;;;;;;7.37;2.10;;;;;;;19.60;16.02;100722.34;4933266;28;20230;-65
2022/05/10 11:23:51;;;;;;;5.83;1.93;;;;;;;19.48;16.64;100717.69;4944850;28;20231;-65
2022/05/10 11:26:40;;;;;;;5.00;1.80;;;;;;;19.48;17.53;100714.97;4963700;28;20225;-65
2022/05/10 11:29:31;;;;;;;6.90;2.33;;;;;;;19.49;15.46;100709.38;4964474;28;20231;-62
2022/05/10 11:32:01;;;;;;;5.67;1.73;;;;;;;19.43;14.77;100709.34;4967196;28;20226;-64
2022/05/10 11:34:53;;;;;;;6.13;2.03;;;;;;;19.49;15.20;100697.75;4969476;28;20215;-63
2022/05/10 11:37:30;;;;;;;9.03;2.00;;;;;;;18.97;15.20;100691.75;4965031;28;20232;-63
2022/05/10 11:40:27;;;;;;;5.60;1.57;;;;;;;19.15;15.60;100688.56;4967013;28;20223;-64
2022/05/10 11:43:12;;;;;;;11.07;2.00;;;;;;;19.48;15.94;100686.13;4968561;28;20227;-62
2022/05/10 11:45:52;;;;;;;7.43;1.50;;;;;;;19.50;16.00;100683.22;4967503;28;21382;-64
2022/05/10 11:48:30;;;;;;;4.30;1.60;;;;;;;19.52;16.83;100662.28;4964686;28;20557;-65
2022/05/10 11:51:42;;;;;;;12.10;1.90;;;;;;;19.55;16.15;100664.56;4968397;28;20235;-67
2022/05/10 11:54:16;;;;;;;8.90;2.10;;;;;;;19.77;15.52;100658.09;4955257;28;20232;-65
2022/05/10 11:56:44;;;;;;;5.53;2.10;;;;;;;19.56;15.86;100658.97;4951980;28;20307;-65